createdAt,value
2023-12-11T00:01:15.490Z,0.83
2023-12-11T00:03:43.935Z,0.80
2023-12-11T00:06:12.769Z,0.80
2023-12-11T00:08:41.629Z,0.73
2023-12-11T00:11:10.481Z,0.67
2023-12-11T00:13:38.747Z,1.00
2023-12-11T00:16:07.752Z,0.50
2023-12-11T00:18:37.879Z,0.50
2023-12-11T00:21:06.681Z,0.60
2023-12-11T00:23:34.880Z,0.40
2023-12-11T00:26:03.232Z,0.53
2023-12-11T00:28:31.897Z,0.37
2023-12-11T00:31:00.879Z,0.50
2023-12-11T00:33:29.448Z,0.93
2023-12-11T00:36:01.669Z,0.60
2023-12-11T00:38:32.911Z,0.50
2023-12-11T00:41:01.348Z,0.40
2023-12-11T00:43:44.203Z,0.43
2023-12-11T00:46:18.031Z,0.70
2023-12-11T00:48:46.846Z,0.40
2023-12-11T00:51:20.403Z,0.50
2023-12-11T00:53:49.492Z,0.47
2023-12-11T00:56:18.167Z,0.50
2023-12-11T00:58:49.649Z,0.50
2023-12-11T01:01:18.031Z,0.50
2023-12-11T01:03:46.512Z,0.40
2023-12-11T01:06:15.624Z,0.40
2023-12-11T01:08:45.747Z,0.47
2023-12-11T01:11:16.982Z,0.40
2023-12-11T01:13:45.350Z,0.33
2023-12-11T01:16:14.493Z,0.53
2023-12-11T01:18:43.087Z,0.50
2023-12-11T01:21:11.754Z,0.53
2023-12-11T01:23:40.269Z,0.53
2023-12-11T01:26:09.983Z,0.40
2023-12-11T01:28:38.554Z,0.53
2023-12-11T01:31:07.294Z,0.40
2023-12-11T01:33:36.708Z,0.50
2023-12-11T01:36:05.779Z,0.60
2023-12-11T01:38:34.440Z,0.60
2023-12-11T01:41:03.035Z,0.67
2023-12-11T01:43:32.778Z,0.50
2023-12-11T01:46:06.910Z,0.70
2023-12-11T02:49:11.673Z,1.10
2023-12-11T02:51:40.156Z,0.80
2023-12-11T02:54:08.767Z,0.80
2023-12-11T02:56:40.975Z,0.80
2023-12-11T02:59:09.216Z,1.00
2023-12-11T03:01:40.751Z,1.00
2023-12-11T03:04:09.378Z,0.90
2023-12-11T03:06:39.616Z,0.97
2023-12-11T03:09:09.234Z,1.17
2023-12-11T03:11:37.556Z,1.20
2023-12-11T03:14:05.853Z,0.90
2023-12-11T03:16:34.195Z,1.20
2023-12-11T03:19:02.668Z,1.40
2023-12-11T03:21:31.031Z,1.00
2023-12-11T03:24:00.869Z,1.10
2023-12-11T03:26:29.171Z,1.20
2023-12-11T03:28:57.371Z,0.90
2023-12-11T03:31:25.632Z,1.00
2023-12-11T03:33:55.520Z,1.03
2023-12-11T03:36:24.988Z,1.13
2023-12-11T03:38:53.505Z,1.10
2023-12-11T03:41:23.285Z,0.90
2023-12-11T03:43:51.693Z,1.20
2023-12-11T03:46:20.178Z,1.10
2023-12-11T03:48:49.283Z,0.87
2023-12-11T03:51:18.154Z,0.97
2023-12-11T03:53:46.544Z,1.10
2023-12-11T03:56:15.330Z,1.00
2023-12-11T03:58:45.128Z,1.40
2023-12-11T04:01:13.421Z,0.87
2023-12-11T04:03:41.873Z,0.87
2023-12-11T04:06:10.620Z,2.53
2023-12-11T04:08:42.206Z,1.20
2023-12-11T04:11:10.619Z,1.10
2023-12-11T04:13:39.182Z,0.90
2023-12-11T04:16:10.265Z,1.40
2023-12-11T04:18:39.189Z,0.90
2023-12-11T04:21:08.019Z,1.00
2023-12-11T04:23:36.965Z,0.70
2023-12-11T04:26:06.106Z,0.60
2023-12-11T04:28:34.407Z,0.90
2023-12-11T04:31:02.650Z,0.73
2023-12-11T04:33:34.426Z,0.87
2023-12-11T04:36:03.460Z,1.27
2023-12-11T04:38:32.111Z,1.13
2023-12-11T04:41:00.408Z,0.80
2023-12-11T04:43:31.733Z,0.87
2023-12-11T04:46:01.060Z,1.13
2023-12-11T04:48:29.542Z,0.70
2023-12-11T04:50:59.385Z,1.00
2023-12-11T04:53:27.540Z,1.00
2023-12-11T04:55:56.273Z,1.00
2023-12-11T04:59:10.181Z,0.90
2023-12-11T05:01:43.491Z,0.80
2023-12-11T05:04:15.568Z,0.90
2023-12-11T05:06:54.699Z,0.80
2023-12-11T05:09:24.018Z,1.07
2023-12-11T05:11:52.820Z,0.97
2023-12-11T05:14:21.372Z,1.03
2023-12-11T05:16:49.854Z,1.10
2023-12-11T05:19:18.265Z,0.90
2023-12-11T05:21:48.624Z,1.00
2023-12-11T05:24:28.783Z,1.20
2023-12-11T05:26:59.764Z,0.90
2023-12-11T05:29:28.202Z,1.10
2023-12-11T05:31:56.697Z,1.13
2023-12-11T05:34:25.365Z,1.20
2023-12-11T05:36:56.373Z,1.00
2023-12-11T05:39:25.007Z,1.43
2023-12-11T05:41:53.776Z,1.17
2023-12-11T05:44:22.547Z,1.30
2023-12-11T05:46:50.984Z,1.20
2023-12-11T08:04:15.545Z,0.80
2023-12-11T08:06:44.197Z,0.73
2023-12-11T08:09:13.008Z,0.90
2023-12-11T08:11:44.623Z,0.60
2023-12-11T08:14:13.277Z,1.00
2023-12-11T08:16:41.603Z,1.13
2023-12-11T08:19:09.945Z,1.00
2023-12-11T08:21:41.452Z,1.10
2023-12-11T08:24:12.001Z,0.90
2023-12-11T08:26:40.707Z,1.13
2023-12-11T08:31:57.689Z,1.03
2023-12-11T08:34:26.414Z,0.70
2023-12-11T08:36:58.239Z,0.80
2023-12-11T08:39:27.346Z,0.87
2023-12-11T08:41:56.779Z,0.90
2023-12-11T08:44:25.606Z,0.97
2023-12-11T08:46:54.001Z,1.00
2023-12-11T08:49:22.822Z,0.90
2023-12-11T08:51:51.768Z,0.83
2023-12-11T08:57:45.189Z,1.10
2023-12-11T09:00:19.041Z,1.00
2023-12-11T09:02:48.446Z,1.37
2023-12-11T09:05:17.277Z,1.20
2023-12-11T09:07:46.729Z,1.00
2023-12-11T09:10:16.143Z,0.70
2023-12-11T09:12:46.335Z,0.87
2023-12-11T09:15:15.296Z,0.90
2023-12-11T09:17:44.703Z,0.97
2023-12-11T09:20:13.802Z,0.90
2023-12-11T09:22:43.296Z,0.80
2023-12-11T09:25:13.108Z,0.80
2023-12-11T09:27:42.255Z,0.93
2023-12-11T09:30:13.537Z,1.23
2023-12-11T09:32:43.657Z,1.17
2023-12-11T09:35:14.810Z,1.00
2023-12-11T09:37:44.542Z,0.60
2023-12-11T09:40:14.856Z,0.80
2023-12-11T09:42:45.074Z,1.20
2023-12-11T09:45:17.374Z,0.80
2023-12-11T09:47:56.444Z,0.80
2023-12-11T09:50:33.498Z,0.97
2023-12-11T09:53:05.392Z,0.80
2023-12-11T09:55:34.496Z,1.00
2023-12-11T09:58:06.654Z,0.97
2023-12-11T10:00:45.070Z,0.73
2023-12-11T10:03:14.002Z,1.00
2023-12-11T10:05:44.756Z,0.90
2023-12-11T10:08:34.997Z,1.00
2023-12-11T10:11:12.355Z,1.00
2023-12-11T10:13:53.535Z,0.80
2023-12-11T10:16:34.187Z,1.33
2023-12-11T10:19:03.161Z,0.80
2023-12-11T10:21:44.669Z,0.70
2023-12-11T10:24:18.588Z,0.90
2023-12-11T10:26:50.222Z,0.97
2023-12-11T10:29:20.243Z,0.80
2023-12-11T10:31:52.521Z,0.83
2023-12-11T10:34:21.528Z,0.93
2023-12-11T10:36:50.637Z,1.10
2023-12-11T10:39:19.767Z,0.70
2023-12-11T10:41:50.028Z,0.70
2023-12-11T10:44:43.301Z,0.73
2023-12-11T10:47:18.431Z,0.80
2023-12-11T10:49:51.514Z,0.70
2023-12-11T10:52:20.455Z,0.60
2023-12-11T10:54:49.980Z,0.70
2023-12-11T10:57:19.332Z,0.70
2023-12-11T10:59:49.789Z,0.90
2023-12-11T11:02:21.499Z,0.70
2023-12-11T11:04:51.692Z,0.70
2023-12-11T11:07:26.773Z,0.83
2023-12-11T11:10:05.611Z,0.80
2023-12-11T11:12:44.531Z,1.67
2023-12-11T11:15:20.294Z,0.80
2023-12-11T11:18:05.412Z,0.70
2023-12-11T11:20:37.707Z,0.70
2023-12-11T11:28:40.433Z,0.60
2023-12-11T11:31:19.760Z,0.80
2023-12-11T11:37:52.627Z,0.50
2023-12-11T11:40:38.445Z,0.50
2023-12-11T11:43:12.705Z,0.60
2023-12-11T11:45:43.342Z,0.60
2023-12-11T11:48:12.593Z,1.00
2023-12-11T11:53:28.595Z,0.47
2023-12-11T11:56:31.523Z,0.50
2023-12-11T11:59:07.193Z,0.30
2023-12-11T12:04:20.677Z,0.60
2023-12-11T12:06:49.709Z,0.50
2023-12-11T12:09:23.144Z,0.70
2023-12-11T12:11:52.171Z,0.63
2023-12-11T12:14:30.128Z,0.60
2023-12-11T12:17:00.792Z,0.80
2023-12-11T12:19:54.464Z,0.67
2023-12-11T12:22:28.700Z,0.67
2023-12-11T12:25:22.217Z,0.70
2023-12-11T12:27:58.510Z,0.60
2023-12-11T12:30:28.934Z,0.53
2023-12-11T12:33:05.276Z,0.60
2023-12-11T12:36:01.206Z,0.50
2023-12-11T12:38:35.794Z,0.53
2023-12-11T12:41:23.060Z,0.50
2023-12-11T12:44:03.573Z,0.60
2023-12-11T12:52:35.716Z,0.50
2023-12-11T12:55:09.849Z,0.60
2023-12-11T12:57:50.215Z,0.70
2023-12-11T13:00:24.275Z,0.50
2023-12-11T13:03:36.210Z,0.73
2023-12-11T13:06:07.829Z,0.50
2023-12-11T13:08:46.581Z,0.60
2023-12-11T13:14:39.433Z,0.37
2023-12-11T13:17:12.162Z,0.40
2023-12-11T13:19:41.811Z,0.60
2023-12-11T13:27:55.397Z,0.70
2023-12-11T13:30:41.724Z,0.60
2023-12-11T13:33:31.760Z,0.60
2023-12-11T13:36:00.560Z,0.43
2023-12-11T13:38:30.072Z,0.70
2023-12-11T13:43:57.675Z,0.50
2023-12-11T14:10:19.148Z,0.70
2023-12-11T14:12:48.270Z,0.50
2023-12-11T14:15:33.678Z,0.40
2023-12-11T14:18:04.745Z,0.40
2023-12-11T14:20:34.504Z,0.60
2023-12-11T14:23:04.837Z,0.60
2023-12-11T14:25:39.550Z,0.50
2023-12-11T14:28:22.540Z,0.67
2023-12-11T14:30:51.788Z,0.40
2023-12-11T14:33:20.899Z,0.50
2023-12-11T14:46:43.720Z,0.70
2023-12-11T14:49:12.402Z,0.50
2023-12-11T14:51:41.272Z,0.83
2023-12-11T14:54:10.456Z,0.63
2023-12-11T14:56:40.240Z,0.70
2023-12-11T14:59:10.106Z,0.50
2023-12-11T15:01:38.691Z,0.60
2023-12-11T15:04:09.435Z,0.70
2023-12-11T15:06:38.048Z,0.50
2023-12-11T15:09:07.947Z,0.60
2023-12-11T15:11:41.596Z,0.50
2023-12-11T15:17:26.542Z,0.60
2023-12-11T15:19:57.116Z,0.80
2023-12-11T15:22:28.871Z,0.57
2023-12-11T15:24:57.703Z,0.60
2023-12-11T15:27:26.720Z,0.60
2023-12-11T15:30:09.361Z,0.67
2023-12-11T15:32:38.456Z,0.60
2023-12-11T15:35:11.288Z,0.57
2023-12-11T15:37:40.156Z,0.70
2023-12-11T15:40:09.443Z,0.80
2023-12-11T15:42:45.842Z,0.63
2023-12-11T15:45:15.019Z,0.67
2023-12-11T15:48:00.532Z,1.10
2023-12-11T15:50:36.256Z,0.83
2023-12-11T15:53:04.864Z,1.13
2023-12-11T15:55:35.599Z,0.83
2023-12-11T15:58:04.646Z,0.80
2023-12-11T16:07:21.557Z,0.93
2023-12-11T16:12:38.599Z,1.00
2023-12-11T16:15:08.165Z,1.30
2023-12-11T16:17:36.395Z,1.07
2023-12-11T16:20:04.946Z,0.67
2023-12-11T16:22:35.697Z,1.00
2023-12-11T16:25:04.199Z,0.90
2023-12-11T16:27:33.081Z,0.90
2023-12-11T16:30:01.364Z,0.90
2023-12-11T16:32:31.764Z,0.80
2023-12-11T16:35:00.319Z,1.00
2023-12-11T16:37:28.602Z,0.80
2023-12-11T16:39:58.014Z,1.03
2023-12-11T16:42:28.490Z,0.70
2023-12-11T16:44:56.995Z,0.80
2023-12-11T16:47:25.111Z,0.80
2023-12-11T16:50:01.248Z,0.60
2023-12-11T16:52:35.457Z,1.00
2023-12-11T16:55:06.665Z,0.80
2023-12-11T16:57:35.072Z,0.93
2023-12-11T17:00:03.459Z,0.60
2023-12-11T17:02:31.855Z,0.90
2023-12-11T17:05:00.239Z,0.80
2023-12-11T17:07:28.876Z,0.80
2023-12-11T17:09:58.965Z,0.87
2023-12-11T17:12:28.876Z,0.70
2023-12-11T17:14:58.031Z,0.93
2023-12-11T17:17:27.121Z,0.70
2023-12-11T17:19:55.277Z,0.80
2023-12-11T17:22:23.567Z,1.03
2023-12-11T17:24:51.675Z,0.83
2023-12-11T17:27:19.715Z,1.10
2023-12-11T17:29:49.107Z,0.90
2023-12-11T17:32:17.227Z,1.07
2023-12-11T17:34:46.281Z,0.93
2023-12-11T17:37:14.516Z,1.00
2023-12-11T17:39:42.951Z,1.23
2023-12-11T17:42:11.060Z,1.10
2023-12-11T17:44:39.169Z,0.70
2023-12-11T17:47:10.695Z,1.00
2023-12-11T17:49:39.074Z,1.00
2023-12-11T17:52:07.263Z,1.10
2023-12-11T17:54:35.312Z,1.67
2023-12-11T17:57:04.491Z,1.00
2023-12-11T17:59:32.610Z,1.03
2023-12-11T18:02:01.021Z,0.90
2023-12-11T18:04:30.701Z,0.90
2023-12-11T18:06:59.373Z,1.17
2023-12-11T18:09:27.576Z,1.03
2023-12-11T18:11:55.704Z,1.00
2023-12-11T18:14:26.139Z,1.20
2023-12-11T18:16:54.397Z,1.00
2023-12-11T18:19:22.703Z,0.93
2023-12-11T18:21:53.153Z,0.90
2023-12-11T18:24:21.330Z,1.20
2023-12-11T18:26:49.691Z,1.20
2023-12-11T18:29:18.990Z,1.37
2023-12-11T18:31:47.270Z,1.23
2023-12-11T18:34:15.558Z,0.73
2023-12-11T18:36:44.320Z,1.10
2023-12-11T18:39:14.774Z,1.00
2023-12-11T18:41:43.112Z,1.77
2023-12-11T18:44:11.869Z,0.80
2023-12-11T18:46:41.083Z,0.80
2023-12-11T18:49:10.182Z,0.83
2023-12-11T18:51:38.938Z,1.00
2023-12-11T18:54:07.069Z,1.00
2023-12-11T18:56:36.806Z,1.00
2023-12-11T18:59:04.930Z,1.03
2023-12-11T19:01:33.144Z,0.93
2023-12-11T19:04:01.465Z,1.40
2023-12-11T19:06:30.377Z,1.10
2023-12-11T19:08:59.737Z,0.93
2023-12-11T19:11:28.690Z,0.80
2023-12-11T19:13:58.444Z,1.03
2023-12-11T19:16:27.206Z,1.20
2023-12-11T19:18:56.774Z,1.07
2023-12-11T19:21:24.908Z,0.90
2023-12-11T19:23:53.002Z,1.40
2023-12-11T19:26:20.986Z,1.33
2023-12-11T19:28:49.055Z,1.47
2023-12-11T19:31:19.066Z,1.30
2023-12-11T19:33:47.590Z,1.03
2023-12-11T19:36:16.556Z,1.20
2023-12-11T19:38:44.673Z,1.40
2023-12-11T19:41:14.516Z,1.47
2023-12-11T19:43:42.929Z,2.13
2023-12-11T19:46:11.076Z,1.20
2023-12-11T19:48:41.264Z,1.20
2023-12-11T19:51:13.694Z,1.10
2023-12-11T19:53:41.818Z,1.17
2023-12-11T19:56:10.820Z,1.33
2023-12-11T19:58:38.947Z,1.30
2023-12-11T20:01:07.342Z,1.00
2023-12-11T20:03:35.516Z,1.73
2023-12-11T20:06:05.224Z,1.20
2023-12-11T20:08:33.372Z,1.20
2023-12-11T20:11:01.361Z,1.27
2023-12-11T20:13:29.491Z,1.30
2023-12-11T20:15:58.320Z,1.00
2023-12-11T20:18:26.608Z,1.23
2023-12-11T20:20:54.788Z,1.00
2023-12-11T20:23:24.354Z,1.40
2023-12-11T20:25:53.120Z,1.13
2023-12-11T20:28:24.197Z,1.37
2023-12-11T20:30:55.050Z,1.40
2023-12-11T20:33:24.193Z,1.40
2023-12-11T20:35:53.152Z,1.27
2023-12-11T20:38:26.130Z,1.33
2023-12-11T20:40:56.103Z,1.17
2023-12-11T20:43:24.636Z,1.43
2023-12-11T20:45:53.549Z,1.23
2023-12-11T20:48:22.555Z,1.20
2023-12-11T20:50:52.771Z,1.10
2023-12-11T20:53:21.530Z,1.30
2023-12-11T20:55:50.586Z,1.63
2023-12-11T20:58:22.007Z,1.80
2023-12-11T21:00:50.791Z,1.37
2023-12-11T21:03:19.538Z,1.53
2023-12-11T21:05:48.449Z,1.20
2023-12-11T21:08:17.909Z,1.20
2023-12-11T21:10:46.687Z,1.30
2023-12-11T21:13:15.254Z,1.30
2023-12-11T21:15:45.533Z,1.30
2023-12-11T21:18:14.320Z,1.03
2023-12-11T21:20:43.248Z,1.47
2023-12-11T21:23:12.039Z,1.60
2023-12-11T21:25:41.261Z,1.20
2023-12-11T21:28:11.150Z,2.10
2023-12-11T21:30:40.343Z,0.90
2023-12-11T21:33:14.419Z,1.30
2023-12-11T21:35:43.147Z,1.30
2023-12-11T21:38:14.785Z,1.40
2023-12-11T21:40:44.208Z,1.20
2023-12-11T21:43:14.095Z,1.20
2023-12-11T21:45:50.587Z,1.47
2023-12-11T21:48:21.219Z,1.40
2023-12-11T21:50:50.382Z,1.43
2023-12-11T21:53:19.391Z,1.57
2023-12-11T21:55:51.021Z,1.10
2023-12-11T21:58:21.308Z,1.40
2023-12-11T22:00:50.417Z,1.23
2023-12-11T22:03:21.159Z,1.70
2023-12-11T22:05:52.752Z,1.33
2023-12-11T22:08:21.329Z,1.90
2023-12-11T22:10:52.393Z,1.43
2023-12-11T22:13:21.039Z,1.43
2023-12-11T22:15:49.842Z,1.50
2023-12-11T22:18:20.302Z,1.30
2023-12-11T22:20:49.305Z,1.20
2023-12-11T22:23:18.186Z,1.30
2023-12-11T22:25:46.863Z,1.47
2023-12-11T22:28:15.635Z,1.13
2023-12-11T22:30:44.281Z,1.20
2023-12-11T22:33:13.881Z,1.10
2023-12-11T22:35:43.954Z,1.10
2023-12-11T22:38:13.284Z,1.00
2023-12-11T22:40:42.452Z,1.33
2023-12-11T22:43:11.132Z,1.30
2023-12-11T22:45:39.942Z,1.30
2023-12-11T22:48:09.811Z,1.10
2023-12-11T22:50:38.518Z,1.20
2023-12-11T22:53:08.603Z,1.10
2023-12-11T22:55:37.185Z,1.00
2023-12-11T22:58:13.733Z,1.13
2023-12-11T23:00:45.912Z,1.10
2023-12-11T23:03:17.182Z,1.10
2023-12-11T23:05:46.278Z,0.97
2023-12-11T23:08:16.705Z,1.40
2023-12-11T23:10:46.329Z,1.20
2023-12-11T23:13:15.034Z,1.10
2023-12-11T23:15:43.472Z,1.37
2023-12-11T23:18:11.902Z,1.23
2023-12-11T23:20:40.265Z,1.30
2023-12-11T23:23:08.607Z,1.33
2023-12-11T23:25:43.044Z,1.20
2023-12-11T23:28:17.848Z,1.23
2023-12-11T23:30:46.198Z,1.07
2023-12-11T23:33:14.674Z,1.10
2023-12-11T23:35:42.985Z,1.20
2023-12-11T23:38:11.406Z,1.57
2023-12-11T23:40:41.553Z,1.00
2023-12-11T23:43:10.133Z,1.80
2023-12-11T23:45:39.027Z,1.00
2023-12-11T23:48:07.787Z,1.10
2023-12-11T23:50:36.542Z,1.10
2023-12-11T23:53:05.215Z,1.23
2023-12-11T23:55:33.848Z,1.10
2023-12-11T23:58:04.031Z,2.00
